sensor_id;sensor_type;location;lat;lon;timestamp;pressure;altitude;pressure_sealevel;temperature;humidity
34237;BME280;20501;45.956;13.632;2023-05-12T00:00:29;100330.38;;;12.04;94.63
34237;BME280;20501;45.956;13.632;2023-05-12T00:02:54;100320.47;;;12.13;94.47
34237;BME280;20501;45.956;13.632;2023-05-12T00:05:19;100317.78;;;12.39;93.96
34237;BME280;20501;45.956;13.632;2023-05-12T00:07:45;100318.53;;;13.53;85.80
34237;BME280;20501;45.956;13.632;2023-05-12T00:10:10;100317.44;;;12.42;92.26
34237;BME280;20501;45.956;13.632;2023-05-12T00:12:36;100320.25;;;12.06;95.33
34237;BME280;20501;45.956;13.632;2023-05-12T00:15:01;100312.66;;;12.10;95.27
34237;BME280;20501;45.956;13.632;2023-05-12T00:17:27;100317.00;;;12.02;95.67
34237;BME280;20501;45.956;13.632;2023-05-12T00:19:52;100306.81;;;12.22;94.35
34237;BME280;20501;45.956;13.632;2023-05-12T00:22:18;100313.00;;;12.59;92.45
34237;BME280;20501;45.956;13.632;2023-05-12T00:24:43;100313.13;;;13.61;86.31
34237;BME280;20501;45.956;13.632;2023-05-12T00:27:08;100307.88;;;13.76;85.03
34237;BME280;20501;45.956;13.632;2023-05-12T00:29:34;100310.25;;;14.04;83.36
34237;BME280;20501;45.956;13.632;2023-05-12T00:32:00;100300.91;;;14.32;81.31
34237;BME280;20501;45.956;13.632;2023-05-12T00:34:26;100298.78;;;12.92;87.75
34237;BME280;20501;45.956;13.632;2023-05-12T00:36:52;100307.03;;;12.56;91.79
34237;BME280;20501;45.956;13.632;2023-05-12T00:39:17;100300.75;;;13.67;85.24
34237;BME280;20501;45.956;13.632;2023-05-12T00:41:43;100301.28;;;14.04;82.88
34237;BME280;20501;45.956;13.632;2023-05-12T00:44:08;100304.97;;;13.70;84.67
34237;BME280;20501;45.956;13.632;2023-05-12T00:46:34;100298.03;;;14.17;82.05
34237;BME280;20501;45.956;13.632;2023-05-12T00:49:00;100290.91;;;14.32;81.31
34237;BME280;20501;45.956;13.632;2023-05-12T00:51:26;100294.63;;;14.15;81.78
34237;BME280;20501;45.956;13.632;2023-05-12T00:53:52;100290.41;;;14.29;81.32
34237;BME280;20501;45.956;13.632;2023-05-12T00:56:18;100285.25;;;14.42;80.62
34237;BME280;20501;45.956;13.632;2023-05-12T00:58:44;100288.34;;;13.65;84.14
34237;BME280;20501;45.956;13.632;2023-05-12T01:01:10;100284.31;;;13.85;83.48
34237;BME280;20501;45.956;13.632;2023-05-12T01:03:35;100290.06;;;14.23;81.33
34237;BME280;20501;45.956;13.632;2023-05-12T01:08:35;100287.66;;;14.45;79.98
34237;BME280;20501;45.956;13.632;2023-05-12T01:11:01;100278.84;;;13.09;85.73
34237;BME280;20501;45.956;13.632;2023-05-12T01:13:27;100276.28;;;12.99;86.95
34237;BME280;20501;45.956;13.632;2023-05-12T01:15:54;100283.66;;;13.24;86.48
34237;BME280;20501;45.956;13.632;2023-05-12T01:18:22;100283.25;;;13.61;84.50
34237;BME280;20501;45.956;13.632;2023-05-12T01:20:48;100283.94;;;14.21;82.02
34237;BME280;20501;45.956;13.632;2023-05-12T01:23:17;100289.03;;;14.41;80.29
34237;BME280;20501;45.956;13.632;2023-05-12T01:25:45;100275.41;;;14.49;79.79
34237;BME280;20501;45.956;13.632;2023-05-12T01:28:13;100279.66;;;14.52;79.73
34237;BME280;20501;45.956;13.632;2023-05-12T01:30:39;100278.81;;;14.51;79.59
34237;BME280;20501;45.956;13.632;2023-05-12T01:33:07;100277.00;;;13.86;82.38
34237;BME280;20501;45.956;13.632;2023-05-12T01:35:33;100281.53;;;13.01;87.65
34237;BME280;20501;45.956;13.632;2023-05-12T01:37:58;100277.19;;;13.16;87.21
34237;BME280;20501;45.956;13.632;2023-05-12T01:40:24;100284.13;;;13.95;83.03
34237;BME280;20501;45.956;13.632;2023-05-12T01:42:49;100284.97;;;13.71;83.09
34237;BME280;20501;45.956;13.632;2023-05-12T01:45:14;100281.22;;;13.72;84.01
34237;BME280;20501;45.956;13.632;2023-05-12T01:47:40;100282.69;;;13.41;84.74
34237;BME280;20501;45.956;13.632;2023-05-12T01:50:06;100278.84;;;14.10;81.73
34237;BME280;20501;45.956;13.632;2023-05-12T01:52:32;100276.00;;;12.76;88.20
34237;BME280;20501;45.956;13.632;2023-05-12T01:54:57;100288.47;;;12.61;89.65
34237;BME280;20501;45.956;13.632;2023-05-12T01:57:22;100288.38;;;13.73;84.19
34237;BME280;20501;45.956;13.632;2023-05-12T01:59:48;100282.25;;;14.12;81.71
34237;BME280;20501;45.956;13.632;2023-05-12T02:02:13;100288.03;;;13.84;82.33
34237;BME280;20501;45.956;13.632;2023-05-12T02:04:39;100285.31;;;14.01;82.12
34237;BME280;20501;45.956;13.632;2023-05-12T02:07:04;100283.78;;;14.31;80.89
34237;BME280;20501;45.956;13.632;2023-05-12T02:09:29;100282.75;;;14.07;81.16
34237;BME280;20501;45.956;13.632;2023-05-12T02:11:55;100279.56;;;13.20;85.22
34237;BME280;20501;45.956;13.632;2023-05-12T02:14:20;100281.81;;;12.29;91.03
34237;BME280;20501;45.956;13.632;2023-05-12T02:16:46;100278.38;;;12.18;92.03
34237;BME280;20501;45.956;13.632;2023-05-12T02:19:14;100277.13;;;12.65;90.64
34237;BME280;20501;45.956;13.632;2023-05-12T02:21:40;100280.00;;;13.41;86.18
34237;BME280;20501;45.956;13.632;2023-05-12T02:24:05;100278.59;;;12.25;91.70
34237;BME280;20501;45.956;13.632;2023-05-12T02:26:31;100284.31;;;12.48;91.44
34237;BME280;20501;45.956;13.632;2023-05-12T02:28:56;100278.84;;;13.52;85.57
34237;BME280;20501;45.956;13.632;2023-05-12T02:31:22;100274.50;;;13.25;85.30
34237;BME280;20501;45.956;13.632;2023-05-12T02:33:47;100264.72;;;12.89;87.95
34237;BME280;20501;45.956;13.632;2023-05-12T02:36:14;100268.97;;;11.86;92.39
34237;BME280;20501;45.956;13.632;2023-05-12T02:38:40;100261.78;;;11.59;95.87
34237;BME280;20501;45.956;13.632;2023-05-12T02:41:06;100260.84;;;11.86;94.61
34237;BME280;20501;45.956;13.632;2023-05-12T02:43:31;100263.16;;;11.81;95.52
34237;BME280;20501;45.956;13.632;2023-05-12T02:45:57;100263.84;;;11.65;95.15
34237;BME280;20501;45.956;13.632;2023-05-12T02:48:22;100254.44;;;11.51;96.56
34237;BME280;20501;45.956;13.632;2023-05-12T02:50:48;100258.19;;;11.40;97.89
34237;BME280;20501;45.956;13.632;2023-05-12T02:53:13;100261.38;;;11.72;97.27
34237;BME280;20501;45.956;13.632;2023-05-12T02:55:39;100255.50;;;13.16;88.73
34237;BME280;20501;45.956;13.632;2023-05-12T02:58:05;100265.44;;;13.75;84.39
34237;BME280;20501;45.956;13.632;2023-05-12T03:00:31;100262.91;;;13.90;83.44
34237;BME280;20501;45.956;13.632;2023-05-12T03:02:56;100257.28;;;14.17;81.81
34237;BME280;20501;45.956;13.632;2023-05-12T03:05:22;100274.94;;;14.29;81.10
34237;BME280;20501;45.956;13.632;2023-05-12T03:07:47;100257.09;;;14.35;80.50
34237;BME280;20501;45.956;13.632;2023-05-12T03:10:17;100269.69;;;13.78;82.80
34237;BME280;20501;45.956;13.632;2023-05-12T03:12:42;100266.31;;;14.01;81.65
34237;BME280;20501;45.956;13.632;2023-05-12T03:15:08;100260.88;;;14.01;81.20
34237;BME280;20501;45.956;13.632;2023-05-12T03:17:34;100253.41;;;13.53;84.51
34237;BME280;20501;45.956;13.632;2023-05-12T03:20:00;100253.91;;;13.65;83.87
34237;BME280;20501;45.956;13.632;2023-05-12T03:22:25;100249.13;;;12.91;84.18
34237;BME280;20501;45.956;13.632;2023-05-12T03:24:51;100251.91;;;12.38;90.47
34237;BME280;20501;45.956;13.632;2023-05-12T03:27:17;100256.88;;;12.78;89.09
34237;BME280;20501;45.956;13.632;2023-05-12T03:29:42;100259.34;;;13.73;83.68
34237;BME280;20501;45.956;13.632;2023-05-12T03:32:07;100256.13;;;13.86;82.71
34237;BME280;20501;45.956;13.632;2023-05-12T03:34:33;100263.22;;;14.20;80.87
34237;BME280;20501;45.956;13.632;2023-05-12T03:36:58;100252.53;;;14.27;80.40
34237;BME280;20501;45.956;13.632;2023-05-12T03:39:24;100259.34;;;13.57;82.54
34237;BME280;20501;45.956;13.632;2023-05-12T03:41:50;100260.53;;;13.79;81.12
34237;BME280;20501;45.956;13.632;2023-05-12T03:44:15;100260.69;;;14.19;80.59
34237;BME280;20501;45.956;13.632;2023-05-12T03:46:40;100264.84;;;13.30;84.28
34237;BME280;20501;45.956;13.632;2023-05-12T03:49:06;100259.09;;;12.82;85.99
34237;BME280;20501;45.956;13.632;2023-05-12T03:51:31;100267.47;;;13.65;83.47
34237;BME280;20501;45.956;13.632;2023-05-12T03:53:57;100272.41;;;14.03;81.35
34237;BME280;20501;45.956;13.632;2023-05-12T03:56:22;100275.56;;;13.40;83.94
34237;BME280;20501;45.956;13.632;2023-05-12T03:58:48;100267.31;;;14.00;81.50
34237;BME280;20501;45.956;13.632;2023-05-12T04:01:14;100267.13;;;13.93;81.78
34237;BME280;20501;45.956;13.632;2023-05-12T04:03:39;100274.28;;;13.94;81.60
34237;BME280;20501;45.956;13.632;2023-05-12T04:06:08;100275.47;;;14.00;81.27
34237;BME280;20501;45.956;13.632;2023-05-12T04:08:33;100267.16;;;13.85;82.27
34237;BME280;20501;45.956;13.632;2023-05-12T04:11:00;100266.41;;;13.41;83.27
34237;BME280;20501;45.956;13.632;2023-05-12T04:13:26;100268.00;;;12.66;87.71
34237;BME280;20501;45.956;13.632;2023-05-12T04:15:55;100259.56;;;13.29;84.87
34237;BME280;20501;45.956;13.632;2023-05-12T04:18:21;100269.09;;;13.33;84.08
34237;BME280;20501;45.956;13.632;2023-05-12T04:20:46;100280.09;;;12.01;91.00
34237;BME280;20501;45.956;13.632;2023-05-12T04:23:12;100276.28;;;11.94;92.51
34237;BME280;20501;45.956;13.632;2023-05-12T04:25:40;100279.47;;;13.46;85.63
34237;BME280;20501;45.956;13.632;2023-05-12T04:28:06;100277.72;;;12.85;87.65
34237;BME280;20501;45.956;13.632;2023-05-12T04:30:31;100283.63;;;12.46;89.56
34237;BME280;20501;45.956;13.632;2023-05-12T04:32:57;100284.91;;;12.34;89.61
34237;BME280;20501;45.956;13.632;2023-05-12T04:35:23;100282.84;;;12.28;89.88
34237;BME280;20501;45.956;13.632;2023-05-12T04:37:48;100289.72;;;12.22;90.66
34237;BME280;20501;45.956;13.632;2023-05-12T04:40:14;100291.59;;;12.48;91.73
34237;BME280;20501;45.956;13.632;2023-05-12T04:42:39;100295.91;;;12.59;90.11
34237;BME280;20501;45.956;13.632;2023-05-12T04:45:06;100300.00;;;12.63;88.34
34237;BME280;20501;45.956;13.632;2023-05-12T04:47:31;100296.91;;;12.92;87.93
34237;BME280;20501;45.956;13.632;2023-05-12T04:49:57;100308.91;;;12.81;87.94
34237;BME280;20501;45.956;13.632;2023-05-12T04:52:23;100305.66;;;13.21;86.05
34237;BME280;20501;45.956;13.632;2023-05-12T04:54:49;100308.34;;;13.55;84.12
34237;BME280;20501;45.956;13.632;2023-05-12T04:57:14;100317.06;;;13.92;82.03
34237;BME280;20501;45.956;13.632;2023-05-12T04:59:40;100320.97;;;14.06;81.46
34237;BME280;20501;45.956;13.632;2023-05-12T05:02:07;100312.00;;;13.38;84.63
34237;BME280;20501;45.956;13.632;2023-05-12T05:04:32;100319.59;;;13.26;85.27
34237;BME280;20501;45.956;13.632;2023-05-12T05:06:58;100322.44;;;13.59;83.75
34237;BME280;20501;45.956;13.632;2023-05-12T05:09:23;100324.88;;;14.03;81.58
34237;BME280;20501;45.956;13.632;2023-05-12T05:11:49;100330.66;;;14.00;82.08
34237;BME280;20501;45.956;13.632;2023-05-12T05:14:14;100324.13;;;13.17;86.80
34237;BME280;20501;45.956;13.632;2023-05-12T05:16:40;100325.47;;;13.13;86.64
34237;BME280;20501;45.956;13.632;2023-05-12T05:19:05;100335.34;;;13.73;83.39
34237;BME280;20501;45.956;13.632;2023-05-12T05:21:31;100331.97;;;13.71;82.94
34237;BME280;20501;45.956;13.632;2023-05-12T05:23:57;100331.00;;;12.95;86.34
34237;BME280;20501;45.956;13.632;2023-05-12T05:26:22;100337.25;;;12.95;87.59
34237;BME280;20501;45.956;13.632;2023-05-12T05:28:47;100334.66;;;13.20;85.88
34237;BME280;20501;45.956;13.632;2023-05-12T05:31:16;100339.84;;;13.40;85.11
34237;BME280;20501;45.956;13.632;2023-05-12T05:33:42;100341.25;;;13.52;83.61
34237;BME280;20501;45.956;13.632;2023-05-12T05:36:08;100352.09;;;13.18;86.18
34237;BME280;20501;45.956;13.632;2023-05-12T05:38:34;100350.13;;;13.79;83.08
34237;BME280;20501;45.956;13.632;2023-05-12T05:41:00;100344.72;;;13.28;85.91
34237;BME280;20501;45.956;13.632;2023-05-12T05:43:26;100356.94;;;12.97;88.05
34237;BME280;20501;45.956;13.632;2023-05-12T05:45:51;100349.28;;;13.70;84.40
34237;BME280;20501;45.956;13.632;2023-05-12T05:48:17;100356.75;;;13.93;82.48
34237;BME280;20501;45.956;13.632;2023-05-12T05:50:43;100359.84;;;14.23;80.89
34237;BME280;20501;45.956;13.632;2023-05-12T05:53:08;100356.28;;;13.04;88.29
34237;BME280;20501;45.956;13.632;2023-05-12T05:55:34;100359.53;;;12.81;89.28
34237;BME280;20501;45.956;13.632;2023-05-12T05:57:59;100362.25;;;12.54;90.13
34237;BME280;20501;45.956;13.632;2023-05-12T06:00:25;100359.94;;;13.64;84.52
34237;BME280;20501;45.956;13.632;2023-05-12T06:02:50;100353.84;;;13.70;84.49
34237;BME280;20501;45.956;13.632;2023-05-12T06:05:16;100354.34;;;13.22;85.75
34237;BME280;20501;45.956;13.632;2023-05-12T06:07:42;100359.72;;;13.49;85.20
34237;BME280;20501;45.956;13.632;2023-05-12T06:10:07;100360.50;;;14.00;81.92
34237;BME280;20501;45.956;13.632;2023-05-12T06:12:33;100362.22;;;14.01;82.12
34237;BME280;20501;45.956;13.632;2023-05-12T06:14:58;100366.56;;;13.69;83.09
34237;BME280;20501;45.956;13.632;2023-05-12T06:17:24;100369.03;;;14.22;81.18
34237;BME280;20501;45.956;13.632;2023-05-12T06:19:49;100367.50;;;14.36;80.14
34237;BME280;20501;45.956;13.632;2023-05-12T06:22:15;100359.69;;;14.24;80.28
34237;BME280;20501;45.956;13.632;2023-05-12T06:24:40;100370.63;;;13.22;83.89
34237;BME280;20501;45.956;13.632;2023-05-12T06:27:06;100366.06;;;13.74;82.75
34237;BME280;20501;45.956;13.632;2023-05-12T06:29:32;100366.41;;;13.79;83.17
34237;BME280;20501;45.956;13.632;2023-05-12T06:31:58;100367.97;;;13.98;81.97
34237;BME280;20501;45.956;13.632;2023-05-12T06:34:23;100371.88;;;13.96;82.22
34237;BME280;20501;45.956;13.632;2023-05-12T06:36:48;100370.00;;;14.04;81.99
34237;BME280;20501;45.956;13.632;2023-05-12T06:39:14;100365.31;;;13.55;84.33
34237;BME280;20501;45.956;13.632;2023-05-12T06:41:40;100369.81;;;13.81;83.48
34237;BME280;20501;45.956;13.632;2023-05-12T06:44:05;100373.41;;;13.82;83.26
34237;BME280;20501;45.956;13.632;2023-05-12T06:46:32;100377.19;;;14.22;80.98
34237;BME280;20501;45.956;13.632;2023-05-12T06:48:57;100383.75;;;14.03;82.10
34237;BME280;20501;45.956;13.632;2023-05-12T06:51:24;100374.78;;;14.19;81.26
34237;BME280;20501;45.956;13.632;2023-05-12T06:53:50;100378.97;;;13.88;83.32
34237;BME280;20501;45.956;13.632;2023-05-12T06:56:15;100381.38;;;13.91;82.85
34237;BME280;20501;45.956;13.632;2023-05-12T06:58:44;100371.34;;;13.32;86.95
34237;BME280;20501;45.956;13.632;2023-05-12T07:01:09;100381.38;;;13.40;85.82
34237;BME280;20501;45.956;13.632;2023-05-12T07:03:34;100382.06;;;13.93;83.12
34237;BME280;20501;45.956;13.632;2023-05-12T07:06:00;100384.06;;;13.75;84.99
34237;BME280;20501;45.956;13.632;2023-05-12T07:08:26;100381.09;;;14.19;81.61
34237;BME280;20501;45.956;13.632;2023-05-12T07:10:51;100386.00;;;14.32;81.02
34237;BME280;20501;45.956;13.632;2023-05-12T07:13:17;100381.59;;;14.39;80.34
34237;BME280;20501;45.956;13.632;2023-05-12T07:15:43;100385.81;;;14.42;80.36
34237;BME280;20501;45.956;13.632;2023-05-12T07:18:09;100380.47;;;13.66;85.16
34237;BME280;20501;45.956;13.632;2023-05-12T07:20:34;100383.81;;;14.19;81.68
34237;BME280;20501;45.956;13.632;2023-05-12T07:22:59;100381.59;;;14.31;80.87
34237;BME280;20501;45.956;13.632;2023-05-12T07:25:25;100378.19;;;14.46;80.20
34237;BME280;20501;45.956;13.632;2023-05-12T07:27:50;100381.91;;;14.12;83.18
34237;BME280;20501;45.956;13.632;2023-05-12T07:30:16;100384.91;;;13.84;85.88
34237;BME280;20501;45.956;13.632;2023-05-12T07:32:41;100391.72;;;13.88;83.93
34237;BME280;20501;45.956;13.632;2023-05-12T07:35:07;100392.25;;;13.40;87.38
34237;BME280;20501;45.956;13.632;2023-05-12T07:37:33;100391.84;;;13.70;85.96
34237;BME280;20501;45.956;13.632;2023-05-12T07:39:59;100394.44;;;13.80;84.09
34237;BME280;20501;45.956;13.632;2023-05-12T07:42:24;100394.16;;;14.24;81.56
34237;BME280;20501;45.956;13.632;2023-05-12T07:44:50;100399.00;;;13.79;85.78
34237;BME280;20501;45.956;13.632;2023-05-12T07:47:15;100405.66;;;13.42;89.70
34237;BME280;20501;45.956;13.632;2023-05-12T07:49:40;100397.38;;;13.17;86.79
34237;BME280;20501;45.956;13.632;2023-05-12T07:52:06;100399.59;;;13.22;87.53
34237;BME280;20501;45.956;13.632;2023-05-12T07:54:31;100405.03;;;13.56;86.26
34237;BME280;20501;45.956;13.632;2023-05-12T07:56:57;100397.38;;;13.52;87.08
34237;BME280;20501;45.956;13.632;2023-05-12T07:59:22;100405.13;;;13.38;86.87
34237;BME280;20501;45.956;13.632;2023-05-12T08:01:48;100404.47;;;13.44;86.75
34237;BME280;20501;45.956;13.632;2023-05-12T08:04:13;100405.09;;;13.73;85.21
34237;BME280;20501;45.956;13.632;2023-05-12T08:06:39;100407.38;;;14.27;82.04
34237;BME280;20501;45.956;13.632;2023-05-12T08:09:04;100408.31;;;13.76;84.55
34237;BME280;20501;45.956;13.632;2023-05-12T08:11:30;100410.28;;;14.26;82.15
34237;BME280;20501;45.956;13.632;2023-05-12T08:13:56;100406.38;;;14.36;81.85
34237;BME280;20501;45.956;13.632;2023-05-12T08:16:22;100412.50;;;14.14;83.27
34237;BME280;20501;45.956;13.632;2023-05-12T08:18:47;100413.78;;;13.93;84.78
34237;BME280;20501;45.956;13.632;2023-05-12T08:21:13;100406.00;;;14.06;82.64
34237;BME280;20501;45.956;13.632;2023-05-12T08:23:38;100399.91;;;14.13;83.15
34237;BME280;20501;45.956;13.632;2023-05-12T08:26:03;100406.31;;;13.87;83.87
34237;BME280;20501;45.956;13.632;2023-05-12T08:28:29;100402.81;;;14.36;81.43
34237;BME280;20501;45.956;13.632;2023-05-12T08:30:56;100412.16;;;14.25;82.13
34237;BME280;20501;45.956;13.632;2023-05-12T08:33:21;100416.88;;;14.06;85.40
34237;BME280;20501;45.956;13.632;2023-05-12T08:35:47;100417.50;;;13.84;84.18
34237;BME280;20501;45.956;13.632;2023-05-12T08:38:13;100412.53;;;13.71;86.38
34237;BME280;20501;45.956;13.632;2023-05-12T08:43:37;100411.88;;;13.77;85.54
34237;BME280;20501;45.956;13.632;2023-05-12T08:46:06;100411.44;;;13.98;83.72
34237;BME280;20501;45.956;13.632;2023-05-12T08:48:33;100418.75;;;13.98;85.33
34237;BME280;20501;45.956;13.632;2023-05-12T08:51:00;100418.25;;;14.11;84.01
34237;BME280;20501;45.956;13.632;2023-05-12T08:53:27;100422.47;;;14.05;85.19
34237;BME280;20501;45.956;13.632;2023-05-12T08:55:55;100433.16;;;13.98;83.35
34237;BME280;20501;45.956;13.632;2023-05-12T08:58:20;100423.00;;;14.17;83.17
34237;BME280;20501;45.956;13.632;2023-05-12T09:00:46;100427.22;;;14.03;82.09
34237;BME280;20501;45.956;13.632;2023-05-12T09:03:12;100429.13;;;14.27;83.52
34237;BME280;20501;45.956;13.632;2023-05-12T09:05:39;100436.75;;;14.32;83.63
34237;BME280;20501;45.956;13.632;2023-05-12T09:08:05;100432.00;;;14.42;81.49
34237;BME280;20501;45.956;13.632;2023-05-12T09:10:33;100430.81;;;14.36;82.88
34237;BME280;20501;45.956;13.632;2023-05-12T09:13:11;100430.16;;;14.51;80.97
34237;BME280;20501;45.956;13.632;2023-05-12T09:15:44;100442.75;;;14.35;86.45
34237;BME280;20501;45.956;13.632;2023-05-12T09:18:10;100440.69;;;14.37;84.21
34237;BME280;20501;45.956;13.632;2023-05-12T09:20:35;100446.97;;;14.46;81.80
34237;BME280;20501;45.956;13.632;2023-05-12T09:23:15;100441.19;;;14.33;82.74
34237;BME280;20501;45.956;13.632;2023-05-12T09:25:41;100449.88;;;14.45;81.11
34237;BME280;20501;45.956;13.632;2023-05-12T09:28:07;100443.56;;;14.36;79.53
34237;BME280;20501;45.956;13.632;2023-05-12T09:30:32;100446.81;;;14.48;80.88
34237;BME280;20501;45.956;13.632;2023-05-12T09:33:06;100449.50;;;14.39;85.23
34237;BME280;20501;45.956;13.632;2023-05-12T09:35:37;100451.72;;;14.52;83.66
34237;BME280;20501;45.956;13.632;2023-05-12T09:38:10;100449.00;;;14.36;82.14
34237;BME280;20501;45.956;13.632;2023-05-12T09:40:36;100453.75;;;14.26;79.65
34237;BME280;20501;45.956;13.632;2023-05-12T09:43:04;100453.56;;;14.19;78.88
34237;BME280;20501;45.956;13.632;2023-05-12T09:45:35;100457.16;;;14.36;82.12
34237;BME280;20501;45.956;13.632;2023-05-12T09:48:11;100455.28;;;14.20;85.11
34237;BME280;20501;45.956;13.632;2023-05-12T09:50:49;100455.28;;;14.20;80.77
34237;BME280;20501;45.956;13.632;2023-05-12T09:53:16;100450.69;;;14.20;80.70
34237;BME280;20501;45.956;13.632;2023-05-12T09:55:43;100454.09;;;14.22;80.26
34237;BME280;20501;45.956;13.632;2023-05-12T09:58:09;100448.00;;;14.29;82.27
34237;BME280;20501;45.956;13.632;2023-05-12T10:00:36;100450.88;;;14.35;80.69
34237;BME280;20501;45.956;13.632;2023-05-12T10:03:08;100452.41;;;14.30;80.30
34237;BME280;20501;45.956;13.632;2023-05-12T10:05:38;100455.13;;;14.38;80.42
34237;BME280;20501;45.956;13.632;2023-05-12T10:08:10;100453.44;;;14.37;79.81
34237;BME280;20501;45.956;13.632;2023-05-12T10:10:37;100452.75;;;14.35;84.74
34237;BME280;20501;45.956;13.632;2023-05-12T10:13:04;100454.63;;;14.34;81.07
34237;BME280;20501;45.956;13.632;2023-05-12T10:15:30;100445.13;;;14.47;81.92
34237;BME280;20501;45.956;13.632;2023-05-12T10:17:58;100450.22;;;14.42;80.17
34237;BME280;20501;45.956;13.632;2023-05-12T10:20:25;100451.72;;;14.44;79.78
34237;BME280;20501;45.956;13.632;2023-05-12T10:22:53;100452.75;;;14.43;78.95
34237;BME280;20501;45.956;13.632;2023-05-12T10:25:20;100450.06;;;14.60;78.92
34237;BME280;20501;45.956;13.632;2023-05-12T10:27:47;100449.88;;;14.53;78.28
34237;BME280;20501;45.956;13.632;2023-05-12T10:30:13;100457.00;;;14.54;78.77
34237;BME280;20501;45.956;13.632;2023-05-12T10:32:39;100454.44;;;14.52;78.87
34237;BME280;20501;45.956;13.632;2023-05-12T10:35:08;100454.13;;;14.55;77.51
34237;BME280;20501;45.956;13.632;2023-05-12T10:37:35;100459.09;;;14.68;78.44
34237;BME280;20501;45.956;13.632;2023-05-12T10:40:02;100456.53;;;14.67;78.09
34237;BME280;20501;45.956;13.632;2023-05-12T10:42:40;100462.44;;;14.62;78.50
34237;BME280;20501;45.956;13.632;2023-05-12T10:45:17;100455.81;;;14.57;77.23
34237;BME280;20501;45.956;13.632;2023-05-12T10:47:44;100456.84;;;14.47;74.99
34237;BME280;20501;45.956;13.632;2023-05-12T10:50:11;100455.16;;;14.63;78.72
34237;BME280;20501;45.956;13.632;2023-05-12T10:52:54;100455.63;;;14.50;79.04
34237;BME280;20501;45.956;13.632;2023-05-12T10:55:33;100458.72;;;14.55;78.07
34237;BME280;20501;45.956;13.632;2023-05-12T10:58:09;100460.75;;;14.53;77.75
34237;BME280;20501;45.956;13.632;2023-05-12T11:00:48;100457.34;;;14.59;81.36
34237;BME280;20501;45.956;13.632;2023-05-12T11:03:15;100466.69;;;14.57;80.25
34237;BME280;20501;45.956;13.632;2023-05-12T11:05:44;100475.03;;;14.55;79.55
34237;BME280;20501;45.956;13.632;2023-05-12T11:08:10;100480.78;;;14.52;76.50
34237;BME280;20501;45.956;13.632;2023-05-12T11:10:36;100479.44;;;14.56;78.81
34237;BME280;20501;45.956;13.632;2023-05-12T11:13:05;100471.94;;;14.50;77.06
34237;BME280;20501;45.956;13.632;2023-05-12T11:15:30;100468.03;;;14.44;75.96
34237;BME280;20501;45.956;13.632;2023-05-12T11:17:56;100473.13;;;14.47;77.45
34237;BME280;20501;45.956;13.632;2023-05-12T11:20:22;100474.34;;;14.53;78.21
34237;BME280;20501;45.956;13.632;2023-05-12T11:22:48;100475.34;;;14.52;78.52
34237;BME280;20501;45.956;13.632;2023-05-12T11:25:14;100466.34;;;14.60;76.99
34237;BME280;20501;45.956;13.632;2023-05-12T11:27:47;100474.50;;;14.60;78.67
34237;BME280;20501;45.956;13.632;2023-05-12T11:30:15;100477.38;;;14.58;74.85
34237;BME280;20501;45.956;13.632;2023-05-12T11:32:41;100473.00;;;14.57;75.01
34237;BME280;20501;45.956;13.632;2023-05-12T11:37:37;100478.44;;;14.65;77.41
34237;BME280;20501;45.956;13.632;2023-05-12T11:40:18;100477.75;;;14.63;75.95
34237;BME280;20501;45.956;13.632;2023-05-12T11:42:44;100472.31;;;14.63;74.75
34237;BME280;20501;45.956;13.632;2023-05-12T11:45:39;100483.50;;;14.52;76.00
34237;BME280;20501;45.956;13.632;2023-05-12T11:48:13;100475.34;;;14.52;77.04
34237;BME280;20501;45.956;13.632;2023-05-12T11:50:44;100482.50;;;14.53;78.13
34237;BME280;20501;45.956;13.632;2023-05-12T11:53:13;100484.53;;;14.59;77.69
34237;BME280;20501;45.956;13.632;2023-05-12T11:55:55;100483.56;;;14.68;79.03
34237;BME280;20501;45.956;13.632;2023-05-12T11:58:22;100483.72;;;14.75;80.01
34237;BME280;20501;45.956;13.632;2023-05-12T12:00:50;100483.53;;;14.93;82.78
34237;BME280;20501;45.956;13.632;2023-05-12T12:03:16;100482.34;;;14.88;79.59
34237;BME280;20501;45.956;13.632;2023-05-12T12:05:44;100481.69;;;14.77;77.42
34237;BME280;20501;45.956;13.632;2023-05-12T12:08:20;100483.19;;;14.80;77.16
34237;BME280;20501;45.956;13.632;2023-05-12T12:10:46;100483.03;;;14.81;75.55
34237;BME280;20501;45.956;13.632;2023-05-12T12:13:18;100483.38;;;15.03;76.10
34237;BME280;20501;45.956;13.632;2023-05-12T12:15:50;100481.34;;;15.05;75.65
34237;BME280;20501;45.956;13.632;2023-05-12T12:18:16;100485.06;;;15.12;76.35
34237;BME280;20501;45.956;13.632;2023-05-12T12:20:43;100480.63;;;15.11;75.81
34237;BME280;20501;45.956;13.632;2023-05-12T12:23:08;100479.09;;;15.17;76.43
34237;BME280;20501;45.956;13.632;2023-05-12T12:25:34;100474.66;;;15.24;76.17
34237;BME280;20501;45.956;13.632;2023-05-12T12:27:59;100470.41;;;15.22;75.90
34237;BME280;20501;45.956;13.632;2023-05-12T12:30:25;100473.13;;;15.22;75.39
34237;BME280;20501;45.956;13.632;2023-05-12T12:32:51;100478.56;;;15.38;74.44
34237;BME280;20501;45.956;13.632;2023-05-12T12:35:16;100471.94;;;15.16;71.30
34237;BME280;20501;45.956;13.632;2023-05-12T12:37:44;100471.59;;;15.27;74.28
34237;BME280;20501;45.956;13.632;2023-05-12T12:40:15;100466.81;;;15.38;74.25
34237;BME280;20501;45.956;13.632;2023-05-12T12:42:41;100466.13;;;15.44;72.30
34237;BME280;20501;45.956;13.632;2023-05-12T12:45:07;100461.31;;;15.46;71.84